Airfield :
LOGIN :

Register | Disclaimer

   EN    FR    IT 

 










Legend :    VFR   Marginal VFR   IFR   Intensive IFR   Very Intensive IFR
Visi :
Ceiling :
>= 8 km
>= 3000ft
5 to 8 km
1000 to 3000 ft
1500m to 5 km
500 to 1000 ft
800 to 1500m
200 to 500 ft
< 800m
< 200 ft
Symbols :   Thunderstorms  Fog  Heavy snow  Heavy precipitations  Wind > 20 kt
SIGMETs :     Misc.  Thunderstorms  Icing  Turbulence  Mountain Waves  Volcanic Ashes







- Airport Elevation : 1079 ft


ETIK - Illesheim Air Base

CURRENT METAR :
  • 142356Z AUTO 20005KT 9999 OVC022 03/03 A2934 RMK AO2 SLP947 60000 T00300029 10049 20024 57011 $

EXPIRED METARs :
  • 142256Z AUTO 00000KT 9999 SCT012 OVC019 03/03 A2935 RMK AO2 RAE03UPB03E14 SLP951 P0000 T00260026 400580025 $
  • 142249Z AUTO 18003KT 9999 FEW010 OVC019 03/03 A2936 RMK AO2 RAE03UPB03E14 OVC V BKN SLP954 $
  • 142214Z AUTO 21004KT 9999 BKN024 OVC030 03/03 A2936 RMK AO2 RAE03UPB03E14 SLP954 $
  • 142156Z AUTO 21007KT 9999 -RA BKN027 BKN047 BKN060 03/03 A2937 RMK AO2 RAB17 CIG 027V047 SLP958 P0000 T00330026 $

TAF TAF ETIK
Valid from the 14 at 22:00 until the 16 at 04:00 UTC


142208Z 1422/1604 20009KT 9000 -SHRA FEW015 BKN060 610609 QNH2927INS
BECMG 1501/1502 25015G20KT 9000 -RASN OVC015 610209 611106 QNH2927INS
BECMG 1506/1507 25012G18KT 9999 NSW SCT010 BKN020 610209 611206 QNH2929INS
BECMG 1515/1516 24010G15KT 9000 -RASN BKN010 610209 611106 QNH2945INS
TEMPO 1521/1523 9000 -FZRA
BECMG 1522/1523 VRB06KT 6000 BR BKN010 QNH2955INS TX06/1514Z TN00/1503Z
No reported NOTAMs for that airfield.



MET'MAP, your aeronautical weather chart ! - Copyright ORBIFLY December 2007 - Disclaimer

ORBIFLY MET'MAP TEAM :

Programming & Development : Alexandra Zaïnal
Concept & Development : Baudouin d'Aumeries
Co-Development & Prog : Marc-Olivier Méhu
Technical & hardware support : Manuel Goepfert

Contact : metmap@orbifly.com




SOURCES & CREDITS :

   NOAA